sensor_id;sensor_type;location;lat;lon;timestamp;temperature;humidity
66057;DHT22;52842;52.666;5.202;2023-04-06T00:01:47;16.80;61.30
66057;DHT22;52842;52.666;5.202;2023-04-06T00:04:13;16.80;61.30
66057;DHT22;52842;52.666;5.202;2023-04-06T00:06:41;16.70;61.30
66057;DHT22;52842;52.666;5.202;2023-04-06T00:09:08;16.70;61.30
66057;DHT22;52842;52.666;5.202;2023-04-06T00:11:35;16.70;61.30
66057;DHT22;52842;52.666;5.202;2023-04-06T00:14:02;16.70;61.40
66057;DHT22;52842;52.666;5.202;2023-04-06T00:16:28;16.70;61.40
66057;DHT22;52842;52.666;5.202;2023-04-06T00:18:55;16.70;61.40
66057;DHT22;52842;52.666;5.202;2023-04-06T00:21:22;16.70;60.80
66057;DHT22;52842;52.666;5.202;2023-04-06T00:23:50;16.70;60.60
66057;DHT22;52842;52.666;5.202;2023-04-06T00:26:16;16.60;60.50
66057;DHT22;52842;52.666;5.202;2023-04-06T00:28:43;16.70;60.50
66057;DHT22;52842;52.666;5.202;2023-04-06T00:31:10;16.70;60.50
66057;DHT22;52842;52.666;5.202;2023-04-06T00:33:37;16.80;60.40
66057;DHT22;52842;52.666;5.202;2023-04-06T00:36:03;17.00;60.10
66057;DHT22;52842;52.666;5.202;2023-04-06T00:38:30;17.20;59.70
66057;DHT22;52842;52.666;5.202;2023-04-06T00:40:59;17.40;59.40
66057;DHT22;52842;52.666;5.202;2023-04-06T00:43:25;17.50;59.10
66057;DHT22;52842;52.666;5.202;2023-04-06T00:45:52;17.60;58.90
66057;DHT22;52842;52.666;5.202;2023-04-06T00:48:19;17.70;58.70
66057;DHT22;52842;52.666;5.202;2023-04-06T00:50:46;17.70;58.60
66057;DHT22;52842;52.666;5.202;2023-04-06T00:53:12;17.70;58.50
66057;DHT22;52842;52.666;5.202;2023-04-06T00:55:39;17.70;58.50
66057;DHT22;52842;52.666;5.202;2023-04-06T00:58:07;17.70;58.50
66057;DHT22;52842;52.666;5.202;2023-04-06T01:00:34;17.60;58.50
66057;DHT22;52842;52.666;5.202;2023-04-06T01:03:00;17.60;58.60
66057;DHT22;52842;52.666;5.202;2023-04-06T01:05:27;17.60;58.60
66057;DHT22;52842;52.666;5.202;2023-04-06T01:07:54;17.60;58.50
66057;DHT22;52842;52.666;5.202;2023-04-06T01:10:24;17.70;58.40
66057;DHT22;52842;52.666;5.202;2023-04-06T01:12:50;17.70;58.20
66057;DHT22;52842;52.666;5.202;2023-04-06T01:15:19;17.60;58.20
66057;DHT22;52842;52.666;5.202;2023-04-06T01:17:46;17.60;58.30
66057;DHT22;52842;52.666;5.202;2023-04-06T01:20:12;17.50;58.40
66057;DHT22;52842;52.666;5.202;2023-04-06T01:22:41;17.50;58.60
66057;DHT22;52842;52.666;5.202;2023-04-06T01:25:08;17.40;59.30
66057;DHT22;52842;52.666;5.202;2023-04-06T01:27:35;17.30;58.70
66057;DHT22;52842;52.666;5.202;2023-04-06T01:30:02;17.30;58.90
66057;DHT22;52842;52.666;5.202;2023-04-06T01:32:29;17.20;58.90
66057;DHT22;52842;52.666;5.202;2023-04-06T01:34:56;17.20;59.00
66057;DHT22;52842;52.666;5.202;2023-04-06T01:37:22;17.20;59.10
66057;DHT22;52842;52.666;5.202;2023-04-06T01:39:51;17.10;59.10
66057;DHT22;52842;52.666;5.202;2023-04-06T01:42:18;17.10;59.20
66057;DHT22;52842;52.666;5.202;2023-04-06T01:44:45;17.10;59.20
66057;DHT22;52842;52.666;5.202;2023-04-06T01:47:11;17.00;59.20
66057;DHT22;52842;52.666;5.202;2023-04-06T01:49:38;17.00;59.30
66057;DHT22;52842;52.666;5.202;2023-04-06T01:52:05;17.00;59.40
66057;DHT22;52842;52.666;5.202;2023-04-06T01:54:32;17.00;59.40
66057;DHT22;52842;52.666;5.202;2023-04-06T01:57:00;16.90;59.40
66057;DHT22;52842;52.666;5.202;2023-04-06T01:59:26;16.90;59.40
66057;DHT22;52842;52.666;5.202;2023-04-06T02:01:53;16.90;59.50
66057;DHT22;52842;52.666;5.202;2023-04-06T02:04:20;16.80;59.50
66057;DHT22;52842;52.666;5.202;2023-04-06T02:06:46;16.80;59.50
66057;DHT22;52842;52.666;5.202;2023-04-06T02:09:13;16.80;59.50
66057;DHT22;52842;52.666;5.202;2023-04-06T02:11:40;16.80;59.50
66057;DHT22;52842;52.666;5.202;2023-04-06T02:14:08;16.90;59.30
66057;DHT22;52842;52.666;5.202;2023-04-06T02:16:35;17.10;59.00
66057;DHT22;52842;52.666;5.202;2023-04-06T02:19:01;17.20;58.80
66057;DHT22;52842;52.666;5.202;2023-04-06T02:21:28;17.20;58.50
66057;DHT22;52842;52.666;5.202;2023-04-06T02:23:55;17.30;58.40
66057;DHT22;52842;52.666;5.202;2023-04-06T02:26:22;17.40;58.30
66057;DHT22;52842;52.666;5.202;2023-04-06T02:28:48;17.40;58.20
66057;DHT22;52842;52.666;5.202;2023-04-06T02:31:16;17.40;58.10
66057;DHT22;52842;52.666;5.202;2023-04-06T02:33:43;17.40;58.10
66057;DHT22;52842;52.666;5.202;2023-04-06T02:36:10;17.30;58.10
66057;DHT22;52842;52.666;5.202;2023-04-06T02:38:36;17.30;58.30
66057;DHT22;52842;52.666;5.202;2023-04-06T02:41:03;17.30;58.40
66057;DHT22;52842;52.666;5.202;2023-04-06T02:43:30;17.20;58.40
66057;DHT22;52842;52.666;5.202;2023-04-06T02:45:57;17.20;58.50
66057;DHT22;52842;52.666;5.202;2023-04-06T02:48:25;17.20;58.50
66057;DHT22;52842;52.666;5.202;2023-04-06T02:50:51;17.20;58.50
66057;DHT22;52842;52.666;5.202;2023-04-06T02:53:18;17.20;58.60
66057;DHT22;52842;52.666;5.202;2023-04-06T02:55:45;17.20;58.60
66057;DHT22;52842;52.666;5.202;2023-04-06T02:58:11;17.20;58.60
66057;DHT22;52842;52.666;5.202;2023-04-06T03:00:38;17.30;58.50
66057;DHT22;52842;52.666;5.202;2023-04-06T03:03:05;17.20;58.40
66057;DHT22;52842;52.666;5.202;2023-04-06T03:05:34;17.20;58.40
66057;DHT22;52842;52.666;5.202;2023-04-06T03:08:01;17.20;58.40
66057;DHT22;52842;52.666;5.202;2023-04-06T03:10:27;17.20;58.50
66057;DHT22;52842;52.666;5.202;2023-04-06T03:12:54;17.10;58.50
66057;DHT22;52842;52.666;5.202;2023-04-06T03:15:21;17.10;58.50
66057;DHT22;52842;52.666;5.202;2023-04-06T03:17:47;17.10;58.50
66057;DHT22;52842;52.666;5.202;2023-04-06T03:20:14;17.00;58.40
66057;DHT22;52842;52.666;5.202;2023-04-06T03:22:43;17.00;58.50
66057;DHT22;52842;52.666;5.202;2023-04-06T03:25:09;17.00;58.60
66057;DHT22;52842;52.666;5.202;2023-04-06T03:27:36;17.00;58.70
66057;DHT22;52842;52.666;5.202;2023-04-06T03:30:03;17.00;58.70
66057;DHT22;52842;52.666;5.202;2023-04-06T03:32:30;16.90;58.70
66057;DHT22;52842;52.666;5.202;2023-04-06T03:34:57;16.90;58.80
66057;DHT22;52842;52.666;5.202;2023-04-06T03:37:24;16.90;58.90
66057;DHT22;52842;52.666;5.202;2023-04-06T03:39:52;16.80;58.90
66057;DHT22;52842;52.666;5.202;2023-04-06T03:42:18;16.80;58.90
66057;DHT22;52842;52.666;5.202;2023-04-06T03:44:45;16.80;58.90
66057;DHT22;52842;52.666;5.202;2023-04-06T03:47:12;16.80;58.90
66057;DHT22;52842;52.666;5.202;2023-04-06T03:49:39;16.80;59.00
66057;DHT22;52842;52.666;5.202;2023-04-06T03:52:05;16.90;58.90
66057;DHT22;52842;52.666;5.202;2023-04-06T03:54:32;17.00;58.70
66057;DHT22;52842;52.666;5.202;2023-04-06T03:57:00;17.10;58.50
66057;DHT22;52842;52.666;5.202;2023-04-06T03:59:27;17.10;58.30
66057;DHT22;52842;52.666;5.202;2023-04-06T04:01:53;17.20;58.20
66057;DHT22;52842;52.666;5.202;2023-04-06T04:04:20;17.20;58.10
66057;DHT22;52842;52.666;5.202;2023-04-06T04:06:47;17.10;58.10
66057;DHT22;52842;52.666;5.202;2023-04-06T04:09:14;17.10;58.10
66057;DHT22;52842;52.666;5.202;2023-04-06T04:11:40;17.10;58.20
66057;DHT22;52842;52.666;5.202;2023-04-06T04:14:09;17.10;58.20
66057;DHT22;52842;52.666;5.202;2023-04-06T04:16:36;17.10;58.30
66057;DHT22;52842;52.666;5.202;2023-04-06T04:19:04;17.10;58.40
66057;DHT22;52842;52.666;5.202;2023-04-06T04:21:31;17.00;58.30
66057;DHT22;52842;52.666;5.202;2023-04-06T04:23:57;17.10;58.40
66057;DHT22;52842;52.666;5.202;2023-04-06T04:26:24;17.10;58.40
66057;DHT22;52842;52.666;5.202;2023-04-06T04:28:51;17.10;58.40
66057;DHT22;52842;52.666;5.202;2023-04-06T04:31:19;17.10;58.40
66057;DHT22;52842;52.666;5.202;2023-04-06T04:33:48;17.10;58.40
66057;DHT22;52842;52.666;5.202;2023-04-06T04:36:14;17.10;58.40
66057;DHT22;52842;52.666;5.202;2023-04-06T04:38:41;17.10;58.30
66057;DHT22;52842;52.666;5.202;2023-04-06T04:41:08;17.20;58.30
66057;DHT22;52842;52.666;5.202;2023-04-06T04:43:34;17.20;58.30
66057;DHT22;52842;52.666;5.202;2023-04-06T04:46:01;17.20;58.20
66057;DHT22;52842;52.666;5.202;2023-04-06T04:48:30;17.20;58.80
66057;DHT22;52842;52.666;5.202;2023-04-06T04:50:57;17.20;58.10
66057;DHT22;52842;52.666;5.202;2023-04-06T04:53:24;17.20;58.10
66057;DHT22;52842;52.666;5.202;2023-04-06T04:55:50;17.30;58.10
66057;DHT22;52842;52.666;5.202;2023-04-06T04:58:17;17.30;58.00
66057;DHT22;52842;52.666;5.202;2023-04-06T05:00:45;17.30;58.10
66057;DHT22;52842;52.666;5.202;2023-04-06T05:03:13;17.30;58.00
66057;DHT22;52842;52.666;5.202;2023-04-06T05:05:42;17.30;57.90
66057;DHT22;52842;52.666;5.202;2023-04-06T05:08:08;17.40;58.00
66057;DHT22;52842;52.666;5.202;2023-04-06T05:10:35;17.40;57.90
66057;DHT22;52842;52.666;5.202;2023-04-06T05:13:02;17.40;57.90
66057;DHT22;52842;52.666;5.202;2023-04-06T05:15:29;17.40;57.80
66057;DHT22;52842;52.666;5.202;2023-04-06T05:17:56;17.40;57.80
66057;DHT22;52842;52.666;5.202;2023-04-06T05:20:22;17.50;57.80
66057;DHT22;52842;52.666;5.202;2023-04-06T05:22:50;17.50;57.80
66057;DHT22;52842;52.666;5.202;2023-04-06T05:25:17;17.50;57.70
66057;DHT22;52842;52.666;5.202;2023-04-06T05:27:44;17.50;57.70
66057;DHT22;52842;52.666;5.202;2023-04-06T05:30:11;17.50;57.60
66057;DHT22;52842;52.666;5.202;2023-04-06T05:32:37;17.50;57.60
66057;DHT22;52842;52.666;5.202;2023-04-06T05:35:05;17.50;57.60
66057;DHT22;52842;52.666;5.202;2023-04-06T05:37:31;17.60;57.70
66057;DHT22;52842;52.666;5.202;2023-04-06T05:39:59;17.60;57.60
66057;DHT22;52842;52.666;5.202;2023-04-06T05:42:26;17.60;57.60
66057;DHT22;52842;52.666;5.202;2023-04-06T05:44:53;17.60;57.60
66057;DHT22;52842;52.666;5.202;2023-04-06T05:47:20;17.60;57.60
66057;DHT22;52842;52.666;5.202;2023-04-06T05:49:46;17.60;57.50
66057;DHT22;52842;52.666;5.202;2023-04-06T05:52:13;17.60;57.50
66057;DHT22;52842;52.666;5.202;2023-04-06T05:54:40;17.60;57.50
66057;DHT22;52842;52.666;5.202;2023-04-06T05:57:08;17.70;57.50
66057;DHT22;52842;52.666;5.202;2023-04-06T05:59:35;17.70;57.50
66057;DHT22;52842;52.666;5.202;2023-04-06T06:02:01;17.70;57.50
66057;DHT22;52842;52.666;5.202;2023-04-06T06:04:30;17.70;57.40
66057;DHT22;52842;52.666;5.202;2023-04-06T06:06:57;17.70;57.40
66057;DHT22;52842;52.666;5.202;2023-04-06T06:09:23;17.70;57.40
66057;DHT22;52842;52.666;5.202;2023-04-06T06:11:50;17.70;57.40
66057;DHT22;52842;52.666;5.202;2023-04-06T06:14:18;17.70;57.30
66057;DHT22;52842;52.666;5.202;2023-04-06T06:16:45;17.70;57.30
66057;DHT22;52842;52.666;5.202;2023-04-06T06:19:12;17.70;57.30
66057;DHT22;52842;52.666;5.202;2023-04-06T06:21:38;17.70;57.30
66057;DHT22;52842;52.666;5.202;2023-04-06T06:24:05;17.80;57.50
66057;DHT22;52842;52.666;5.202;2023-04-06T06:26:32;17.80;57.70
66057;DHT22;52842;52.666;5.202;2023-04-06T06:29:00;17.90;57.80
66057;DHT22;52842;52.666;5.202;2023-04-06T06:31:28;17.90;58.00
66057;DHT22;52842;52.666;5.202;2023-04-06T06:33:55;17.90;58.10
66057;DHT22;52842;52.666;5.202;2023-04-06T06:36:22;17.90;58.10
66057;DHT22;52842;52.666;5.202;2023-04-06T06:38:49;17.90;58.20
66057;DHT22;52842;52.666;5.202;2023-04-06T06:41:16;18.00;58.40
66057;DHT22;52842;52.666;5.202;2023-04-06T06:43:43;18.00;58.50
66057;DHT22;52842;52.666;5.202;2023-04-06T06:46:10;18.00;58.50
66057;DHT22;52842;52.666;5.202;2023-04-06T06:48:38;18.00;58.60
66057;DHT22;52842;52.666;5.202;2023-04-06T06:51:05;18.00;58.60
66057;DHT22;52842;52.666;5.202;2023-04-06T06:53:31;18.10;58.70
66057;DHT22;52842;52.666;5.202;2023-04-06T06:55:58;18.10;58.60
66057;DHT22;52842;52.666;5.202;2023-04-06T06:58:25;18.10;58.70
66057;DHT22;52842;52.666;5.202;2023-04-06T07:00:55;18.10;58.70
66057;DHT22;52842;52.666;5.202;2023-04-06T07:03:22;18.10;58.70
66057;DHT22;52842;52.666;5.202;2023-04-06T07:05:50;18.20;58.80
66057;DHT22;52842;52.666;5.202;2023-04-06T07:08:19;18.10;58.80
66057;DHT22;52842;52.666;5.202;2023-04-06T07:10:45;18.10;58.70
66057;DHT22;52842;52.666;5.202;2023-04-06T07:13:12;18.20;58.80
66057;DHT22;52842;52.666;5.202;2023-04-06T07:15:43;18.20;58.80
66057;DHT22;52842;52.666;5.202;2023-04-06T07:18:10;18.20;58.80
66057;DHT22;52842;52.666;5.202;2023-04-06T07:20:36;18.20;58.80
66057;DHT22;52842;52.666;5.202;2023-04-06T07:23:04;18.30;58.80
66057;DHT22;52842;52.666;5.202;2023-04-06T07:25:31;18.30;58.80
66057;DHT22;52842;52.666;5.202;2023-04-06T07:27:58;18.30;58.80
66057;DHT22;52842;52.666;5.202;2023-04-06T07:30:25;18.30;58.80
66057;DHT22;52842;52.666;5.202;2023-04-06T07:32:53;18.30;58.80
66057;DHT22;52842;52.666;5.202;2023-04-06T07:35:20;18.30;58.90
66057;DHT22;52842;52.666;5.202;2023-04-06T07:37:47;18.30;58.80
66057;DHT22;52842;52.666;5.202;2023-04-06T07:40:16;18.30;58.80
66057;DHT22;52842;52.666;5.202;2023-04-06T07:42:43;18.30;58.80
66057;DHT22;52842;52.666;5.202;2023-04-06T07:45:10;18.40;58.90
66057;DHT22;52842;52.666;5.202;2023-04-06T07:47:37;18.40;58.90
66057;DHT22;52842;52.666;5.202;2023-04-06T07:50:04;18.40;58.80
66057;DHT22;52842;52.666;5.202;2023-04-06T07:52:31;18.40;58.90
66057;DHT22;52842;52.666;5.202;2023-04-06T07:54:57;18.40;58.90
66057;DHT22;52842;52.666;5.202;2023-04-06T07:57:26;18.40;58.90
66057;DHT22;52842;52.666;5.202;2023-04-06T07:59:52;18.50;58.90
66057;DHT22;52842;52.666;5.202;2023-04-06T08:02:19;18.40;58.90
66057;DHT22;52842;52.666;5.202;2023-04-06T08:04:47;18.40;58.90
66057;DHT22;52842;52.666;5.202;2023-04-06T08:07:14;18.50;58.90
66057;DHT22;52842;52.666;5.202;2023-04-06T08:09:40;18.50;59.00
66057;DHT22;52842;52.666;5.202;2023-04-06T08:12:07;18.50;59.00
66057;DHT22;52842;52.666;5.202;2023-04-06T08:14:35;18.50;59.00
66057;DHT22;52842;52.666;5.202;2023-04-06T08:17:02;18.50;58.90
66057;DHT22;52842;52.666;5.202;2023-04-06T08:19:29;18.50;59.00
66057;DHT22;52842;52.666;5.202;2023-04-06T08:21:55;18.50;58.90
66057;DHT22;52842;52.666;5.202;2023-04-06T08:24:22;18.50;58.90
66057;DHT22;52842;52.666;5.202;2023-04-06T08:26:49;18.60;59.00
66057;DHT22;52842;52.666;5.202;2023-04-06T08:29:16;18.60;59.00
66057;DHT22;52842;52.666;5.202;2023-04-06T08:31:44;18.60;59.00
66057;DHT22;52842;52.666;5.202;2023-04-06T08:34:11;18.60;59.00
66057;DHT22;52842;52.666;5.202;2023-04-06T08:36:38;18.60;59.00
66057;DHT22;52842;52.666;5.202;2023-04-06T08:39:04;18.60;59.00
66057;DHT22;52842;52.666;5.202;2023-04-06T08:41:31;18.60;59.00
66057;DHT22;52842;52.666;5.202;2023-04-06T08:43:58;18.60;58.90
66057;DHT22;52842;52.666;5.202;2023-04-06T08:46:26;18.60;58.90
66057;DHT22;52842;52.666;5.202;2023-04-06T08:48:56;18.60;58.90
66057;DHT22;52842;52.666;5.202;2023-04-06T08:51:23;18.70;58.90
66057;DHT22;52842;52.666;5.202;2023-04-06T08:53:51;18.70;58.90
66057;DHT22;52842;52.666;5.202;2023-04-06T08:56:19;18.70;58.90
66057;DHT22;52842;52.666;5.202;2023-04-06T08:58:47;18.70;58.90
66057;DHT22;52842;52.666;5.202;2023-04-06T09:01:14;18.70;58.80
66057;DHT22;52842;52.666;5.202;2023-04-06T09:03:43;18.70;58.70
66057;DHT22;52842;52.666;5.202;2023-04-06T09:06:12;18.70;58.80
66057;DHT22;52842;52.666;5.202;2023-04-06T09:08:40;18.70;58.90
66057;DHT22;52842;52.666;5.202;2023-04-06T09:11:07;18.80;59.00
66057;DHT22;52842;52.666;5.202;2023-04-06T09:13:43;18.80;59.00
66057;DHT22;52842;52.666;5.202;2023-04-06T09:16:11;18.80;59.10
66057;DHT22;52842;52.666;5.202;2023-04-06T09:18:38;18.80;59.10
66057;DHT22;52842;52.666;5.202;2023-04-06T09:21:05;18.80;59.20
66057;DHT22;52842;52.666;5.202;2023-04-06T09:23:33;18.80;59.20
66057;DHT22;52842;52.666;5.202;2023-04-06T09:26:07;18.80;59.20
66057;DHT22;52842;52.666;5.202;2023-04-06T09:28:44;18.80;59.20
66057;DHT22;52842;52.666;5.202;2023-04-06T09:31:11;18.80;59.20
66057;DHT22;52842;52.666;5.202;2023-04-06T09:33:38;18.90;59.20
66057;DHT22;52842;52.666;5.202;2023-04-06T09:36:06;18.90;59.20
66057;DHT22;52842;52.666;5.202;2023-04-06T09:38:34;18.90;59.10
66057;DHT22;52842;52.666;5.202;2023-04-06T09:41:01;18.90;59.10
66057;DHT22;52842;52.666;5.202;2023-04-06T09:43:28;18.80;59.00
66057;DHT22;52842;52.666;5.202;2023-04-06T09:45:55;18.80;59.00
66057;DHT22;52842;52.666;5.202;2023-04-06T09:48:22;18.80;59.00
66057;DHT22;52842;52.666;5.202;2023-04-06T09:50:51;18.80;59.00
66057;DHT22;52842;52.666;5.202;2023-04-06T09:53:20;18.80;59.10
66057;DHT22;52842;52.666;5.202;2023-04-06T09:55:49;18.80;59.10
66057;DHT22;52842;52.666;5.202;2023-04-06T09:58:18;18.70;59.20
66057;DHT22;52842;52.666;5.202;2023-04-06T10:00:56;18.70;59.20
66057;DHT22;52842;52.666;5.202;2023-04-06T10:03:26;18.70;59.20
66057;DHT22;52842;52.666;5.202;2023-04-06T10:05:57;18.70;59.30
66057;DHT22;52842;52.666;5.202;2023-04-06T10:08:24;18.70;59.40
66057;DHT22;52842;52.666;5.202;2023-04-06T10:10:55;18.60;59.30
66057;DHT22;52842;52.666;5.202;2023-04-06T10:13:22;18.60;59.40
66057;DHT22;52842;52.666;5.202;2023-04-06T10:15:50;18.60;59.40
66057;DHT22;52842;52.666;5.202;2023-04-06T10:18:17;18.60;59.50
66057;DHT22;52842;52.666;5.202;2023-04-06T10:20:47;18.60;59.50
66057;DHT22;52842;52.666;5.202;2023-04-06T10:23:18;18.60;59.50
66057;DHT22;52842;52.666;5.202;2023-04-06T10:25:52;18.50;59.60
66057;DHT22;52842;52.666;5.202;2023-04-06T10:28:21;18.50;59.60
66057;DHT22;52842;52.666;5.202;2023-04-06T10:30:48;18.50;59.60
66057;DHT22;52842;52.666;5.202;2023-04-06T10:33:15;18.40;59.60
66057;DHT22;52842;52.666;5.202;2023-04-06T10:35:42;18.40;59.60
66057;DHT22;52842;52.666;5.202;2023-04-06T10:38:09;18.40;59.80
66057;DHT22;52842;52.666;5.202;2023-04-06T10:40:37;18.40;59.80
66057;DHT22;52842;52.666;5.202;2023-04-06T10:43:07;18.40;59.90
66057;DHT22;52842;52.666;5.202;2023-04-06T10:45:35;18.40;60.00
66057;DHT22;52842;52.666;5.202;2023-04-06T10:48:12;18.40;59.90
66057;DHT22;52842;52.666;5.202;2023-04-06T10:50:39;18.40;59.90
66057;DHT22;52842;52.666;5.202;2023-04-06T10:53:06;18.30;59.90
66057;DHT22;52842;52.666;5.202;2023-04-06T10:55:33;18.30;59.80
66057;DHT22;52842;52.666;5.202;2023-04-06T10:58:05;18.30;59.90
66057;DHT22;52842;52.666;5.202;2023-04-06T11:00:32;18.30;59.90
66057;DHT22;52842;52.666;5.202;2023-04-06T11:03:00;18.30;59.90
66057;DHT22;52842;52.666;5.202;2023-04-06T11:05:27;18.30;60.00
66057;DHT22;52842;52.666;5.202;2023-04-06T11:07:54;18.30;60.10
66057;DHT22;52842;52.666;5.202;2023-04-06T11:10:21;18.30;60.30
66057;DHT22;52842;52.666;5.202;2023-04-06T11:12:52;18.30;60.50
66057;DHT22;52842;52.666;5.202;2023-04-06T11:15:19;18.20;60.60
66057;DHT22;52842;52.666;5.202;2023-04-06T11:17:46;18.20;60.80
66057;DHT22;52842;52.666;5.202;2023-04-06T11:20:15;18.20;61.00
66057;DHT22;52842;52.666;5.202;2023-04-06T11:22:49;18.20;61.10
66057;DHT22;52842;52.666;5.202;2023-04-06T11:25:16;18.20;61.20
66057;DHT22;52842;52.666;5.202;2023-04-06T11:27:43;18.20;61.30
66057;DHT22;52842;52.666;5.202;2023-04-06T11:30:11;18.20;61.40
66057;DHT22;52842;52.666;5.202;2023-04-06T11:32:39;18.30;61.60
66057;DHT22;52842;52.666;5.202;2023-04-06T11:35:06;18.30;61.60
66057;DHT22;52842;52.666;5.202;2023-04-06T11:37:35;18.30;61.70
66057;DHT22;52842;52.666;5.202;2023-04-06T11:40:02;18.30;61.60
66057;DHT22;52842;52.666;5.202;2023-04-06T11:42:29;18.30;61.50
66057;DHT22;52842;52.666;5.202;2023-04-06T11:44:56;18.40;61.40
66057;DHT22;52842;52.666;5.202;2023-04-06T11:47:27;18.40;61.40
66057;DHT22;52842;52.666;5.202;2023-04-06T11:49:54;18.40;61.30
66057;DHT22;52842;52.666;5.202;2023-04-06T11:52:22;18.40;61.30
66057;DHT22;52842;52.666;5.202;2023-04-06T11:54:50;18.40;61.30
66057;DHT22;52842;52.666;5.202;2023-04-06T11:57:18;18.40;61.40
66057;DHT22;52842;52.666;5.202;2023-04-06T11:59:45;18.40;61.50
66057;DHT22;52842;52.666;5.202;2023-04-06T12:02:12;18.40;61.50
66057;DHT22;52842;52.666;5.202;2023-04-06T12:04:38;18.40;61.60
66057;DHT22;52842;52.666;5.202;2023-04-06T12:07:05;18.40;61.70
66057;DHT22;52842;52.666;5.202;2023-04-06T12:09:32;18.40;61.70
66057;DHT22;52842;52.666;5.202;2023-04-06T12:12:01;18.40;61.60
66057;DHT22;52842;52.666;5.202;2023-04-06T12:14:28;18.40;61.70
66057;DHT22;52842;52.666;5.202;2023-04-06T12:16:56;18.40;61.70
66057;DHT22;52842;52.666;5.202;2023-04-06T12:19:22;18.40;61.80
66057;DHT22;52842;52.666;5.202;2023-04-06T12:21:51;18.40;61.90
66057;DHT22;52842;52.666;5.202;2023-04-06T12:24:18;18.40;62.00
66057;DHT22;52842;52.666;5.202;2023-04-06T12:26:44;18.40;62.00
66057;DHT22;52842;52.666;5.202;2023-04-06T12:29:12;18.40;62.20
66057;DHT22;52842;52.666;5.202;2023-04-06T12:31:39;18.40;62.20
66057;DHT22;52842;52.666;5.202;2023-04-06T12:34:08;18.40;62.20
66057;DHT22;52842;52.666;5.202;2023-04-06T12:36:36;18.40;62.30
66057;DHT22;52842;52.666;5.202;2023-04-06T12:39:03;18.40;62.30
66057;DHT22;52842;52.666;5.202;2023-04-06T12:41:29;18.40;62.40
66057;DHT22;52842;52.666;5.202;2023-04-06T12:43:58;18.40;62.50
66057;DHT22;52842;52.666;5.202;2023-04-06T12:46:27;18.50;62.70
66057;DHT22;52842;52.666;5.202;2023-04-06T12:48:55;18.50;62.60
66057;DHT22;52842;52.666;5.202;2023-04-06T12:51:23;18.50;62.70
66057;DHT22;52842;52.666;5.202;2023-04-06T12:53:50;18.60;62.70
66057;DHT22;52842;52.666;5.202;2023-04-06T12:56:17;18.60;62.60
66057;DHT22;52842;52.666;5.202;2023-04-06T12:58:44;18.60;62.50
66057;DHT22;52842;52.666;5.202;2023-04-06T13:01:10;18.70;62.60
66057;DHT22;52842;52.666;5.202;2023-04-06T13:03:39;18.70;62.60
66057;DHT22;52842;52.666;5.202;2023-04-06T13:06:06;18.70;62.40
66057;DHT22;52842;52.666;5.202;2023-04-06T13:08:34;18.80;62.40
66057;DHT22;52842;52.666;5.202;2023-04-06T13:11:02;18.80;62.30
66057;DHT22;52842;52.666;5.202;2023-04-06T13:13:29;18.90;62.40
66057;DHT22;52842;52.666;5.202;2023-04-06T13:15:59;18.90;62.30
66057;DHT22;52842;52.666;5.202;2023-04-06T13:18:26;18.90;62.30
66057;DHT22;52842;52.666;5.202;2023-04-06T13:20:54;18.90;62.20
66057;DHT22;52842;52.666;5.202;2023-04-06T13:23:22;19.00;62.20
66057;DHT22;52842;52.666;5.202;2023-04-06T13:25:56;19.00;62.10
66057;DHT22;52842;52.666;5.202;2023-04-06T13:28:23;19.00;62.00
66057;DHT22;52842;52.666;5.202;2023-04-06T13:30:49;19.10;62.10
66057;DHT22;52842;52.666;5.202;2023-04-06T13:33:16;19.10;62.00
66057;DHT22;52842;52.666;5.202;2023-04-06T13:35:44;19.10;62.00
66057;DHT22;52842;52.666;5.202;2023-04-06T13:38:12;19.10;61.90
66057;DHT22;52842;52.666;5.202;2023-04-06T13:40:39;19.10;61.90
66057;DHT22;52842;52.666;5.202;2023-04-06T13:43:06;19.20;61.90
66057;DHT22;52842;52.666;5.202;2023-04-06T13:45:33;19.20;61.80
66057;DHT22;52842;52.666;5.202;2023-04-06T13:48:00;19.20;62.40
66057;DHT22;52842;52.666;5.202;2023-04-06T13:50:26;19.20;61.70
66057;DHT22;52842;52.666;5.202;2023-04-06T13:52:54;19.10;61.60
66057;DHT22;52842;52.666;5.202;2023-04-06T13:55:22;19.10;61.70
66057;DHT22;52842;52.666;5.202;2023-04-06T13:57:49;19.10;62.40
66057;DHT22;52842;52.666;5.202;2023-04-06T14:00:16;19.10;61.70
66057;DHT22;52842;52.666;5.202;2023-04-06T14:02:43;19.10;61.60
66057;DHT22;52842;52.666;5.202;2023-04-06T14:05:10;19.10;61.60
66057;DHT22;52842;52.666;5.202;2023-04-06T14:07:37;19.10;61.60
66057;DHT22;52842;52.666;5.202;2023-04-06T14:10:04;19.00;61.50
66057;DHT22;52842;52.666;5.202;2023-04-06T14:12:33;19.00;61.50
66057;DHT22;52842;52.666;5.202;2023-04-06T14:14:59;19.00;61.50
66057;DHT22;52842;52.666;5.202;2023-04-06T14:17:26;19.10;61.70
66057;DHT22;52842;52.666;5.202;2023-04-06T14:19:53;19.10;61.70
66057;DHT22;52842;52.666;5.202;2023-04-06T14:22:20;19.10;61.70
66057;DHT22;52842;52.666;5.202;2023-04-06T14:24:47;19.10;61.80
66057;DHT22;52842;52.666;5.202;2023-04-06T14:27:14;19.10;61.80
66057;DHT22;52842;52.666;5.202;2023-04-06T14:29:42;19.20;61.80
66057;DHT22;52842;52.666;5.202;2023-04-06T14:32:09;19.20;61.90
66057;DHT22;52842;52.666;5.202;2023-04-06T14:34:36;19.20;61.90
66057;DHT22;52842;52.666;5.202;2023-04-06T14:37:03;19.30;61.90
66057;DHT22;52842;52.666;5.202;2023-04-06T14:39:30;19.30;61.90
66057;DHT22;52842;52.666;5.202;2023-04-06T14:41:57;19.30;61.90
66057;DHT22;52842;52.666;5.202;2023-04-06T14:44:24;19.30;61.90
66057;DHT22;52842;52.666;5.202;2023-04-06T14:46:52;19.40;62.00
66057;DHT22;52842;52.666;5.202;2023-04-06T14:49:18;19.40;61.90
66057;DHT22;52842;52.666;5.202;2023-04-06T14:51:45;19.40;61.90
66057;DHT22;52842;52.666;5.202;2023-04-06T14:54:12;19.40;61.90
66057;DHT22;52842;52.666;5.202;2023-04-06T14:56:39;19.40;62.00
66057;DHT22;52842;52.666;5.202;2023-04-06T14:59:06;19.50;62.00
66057;DHT22;52842;52.666;5.202;2023-04-06T15:01:33;19.50;62.00
66057;DHT22;52842;52.666;5.202;2023-04-06T15:04:01;19.50;62.00
66057;DHT22;52842;52.666;5.202;2023-04-06T15:06:28;19.40;62.00
66057;DHT22;52842;52.666;5.202;2023-04-06T15:08:55;19.40;62.10
66057;DHT22;52842;52.666;5.202;2023-04-06T15:11:22;19.40;62.20
66057;DHT22;52842;52.666;5.202;2023-04-06T15:13:49;19.40;62.30
66057;DHT22;52842;52.666;5.202;2023-04-06T15:16:15;19.40;62.40
66057;DHT22;52842;52.666;5.202;2023-04-06T15:18:42;19.40;62.50
66057;DHT22;52842;52.666;5.202;2023-04-06T15:21:10;19.40;62.60
66057;DHT22;52842;52.666;5.202;2023-04-06T15:23:37;19.30;62.60
66057;DHT22;52842;52.666;5.202;2023-04-06T15:26:04;19.30;62.70
66057;DHT22;52842;52.666;5.202;2023-04-06T15:28:30;19.30;62.90
66057;DHT22;52842;52.666;5.202;2023-04-06T15:30:57;19.30;62.90